Time;durP1;ratioP1;P1;durP2;ratioP2;P2;SDS_P1;SDS_P2;PMS_P1;PMS_P2;Temp;Humidity;BMP_temperature;BMP_pressure;BME280_temperature;BME280_humidity;BME280_pressure;Samples;Min_cycle;Max_cycle;Signal;HPM_P1;HPM_P2
2021/07/15 00:01:43;;;;;;;67.00;25.35;;;17.90;99.90;;;;;;5094801;28;20176;-84
2021/07/15 00:04:13;;;;;;;64.45;25.77;;;17.90;99.90;;;;;;5078870;28;20215;-84
2021/07/15 00:06:39;;;;;;;61.85;24.73;;;17.80;99.90;;;;;;5074425;28;20163;-84
2021/07/15 00:09:06;;;;;;;67.93;26.38;;;17.70;99.90;;;;;;5062451;28;20182;-84
2021/07/15 00:11:36;;;;;;;77.53;26.63;;;17.70;99.90;;;;;;5074165;28;20523;-84
2021/07/15 00:14:03;;;;;;;66.47;26.73;;;17.70;99.90;;;;;;5069335;28;20669;-83
2021/07/15 00:16:29;;;;;;;77.78;24.65;;;17.70;99.90;;;;;;5076337;28;20186;-85
2021/07/15 00:18:55;;;;;;;72.82;27.42;;;17.80;99.90;;;;;;5076554;28;20215;-84
2021/07/15 00:21:24;;;;;;;60.78;25.42;;;17.80;99.90;;;;;;5076497;28;20180;-84
2021/07/15 00:23:50;;;;;;;69.43;25.40;;;17.80;99.90;;;;;;5074690;28;20227;-84
2021/07/15 00:26:19;;;;;;;67.78;26.92;;;17.80;99.90;;;;;;5057104;28;20175;-83
2021/07/15 00:28:44;;;;;;;69.85;26.73;;;17.70;99.90;;;;;;5056511;28;20705;-84
2021/07/15 00:31:11;;;;;;;75.80;25.92;;;17.70;99.90;;;;;;5056317;28;20274;-83
2021/07/15 00:33:37;;;;;;;69.03;26.35;;;17.60;99.90;;;;;;5074097;28;20171;-84
2021/07/15 00:36:03;;;;;;;74.47;25.27;;;17.60;99.90;;;;;;5057098;28;20274;-84
2021/07/15 00:38:30;;;;;;;73.93;24.25;;;17.70;99.90;;;;;;5055841;28;20184;-84
2021/07/15 00:40:55;;;;;;;62.83;24.52;;;17.70;99.90;;;;;;5073424;28;20167;-84
2021/07/15 00:43:21;;;;;;;70.95;23.80;;;17.70;99.90;;;;;;5055864;28;20696;-85
2021/07/15 00:45:47;;;;;;;69.25;24.67;;;17.80;99.90;;;;;;5075267;28;20175;-83
2021/07/15 00:48:13;;;;;;;76.13;24.17;;;17.80;99.90;;;;;;5039343;28;20456;-85
2021/07/15 00:50:39;;;;;;;78.40;24.42;;;17.80;99.90;;;;;;5073802;28;20209;-84
2021/07/15 00:53:07;;;;;;;70.57;23.45;;;17.80;99.90;;;;;;5056108;28;20619;-85
2021/07/15 00:55:37;;;;;;;62.75;23.52;;;17.80;99.90;;;;;;5050692;28;20175;-85
2021/07/15 00:58:04;;;;;;;59.30;22.00;;;17.70;99.90;;;;;;5056514;28;20190;-84
2021/07/15 01:00:29;;;;;;;69.53;22.48;;;17.70;99.90;;;;;;5073935;28;20171;-85
2021/07/15 01:02:56;;;;;;;64.53;21.98;;;17.70;99.90;;;;;;5055656;28;20536;-84
2021/07/15 01:05:29;;;;;;;60.33;23.15;;;17.70;99.90;;;;;;5055644;28;20210;-85
2021/07/15 01:07:54;;;;;;;65.78;22.45;;;17.80;99.90;;;;;;5085787;28;20608;-84
2021/07/15 01:10:24;;;;;;;74.45;23.10;;;17.80;99.90;;;;;;5075853;28;20177;-85
2021/07/15 01:13:04;;;;;;;55.85;19.88;;;17.80;99.90;;;;;;5093860;28;20158;-84
2021/07/15 01:16:09;;;;;;;63.90;22.48;;;17.80;99.90;;;;;;5073998;28;20170;-86
2021/07/15 01:19:00;;;;;;;62.80;21.00;;;17.80;99.90;;;;;;5073756;28;20267;-84
2021/07/15 01:21:47;;;;;;;68.38;21.55;;;17.80;99.90;;;;;;5028914;28;20170;-84
2021/07/15 01:24:42;;;;;;;55.33;20.33;;;17.80;99.90;;;;;;5093273;28;20210;-85
2021/07/15 01:27:39;;;;;;;67.40;21.02;;;17.90;99.90;;;;;;4997225;28;20252;-84
2021/07/15 01:30:11;;;;;;;56.17;19.45;;;17.90;99.90;;;;;;5064735;28;20274;-84
2021/07/15 01:32:47;;;;;;;58.65;21.50;;;17.90;99.90;;;;;;5073084;28;20514;-84
2021/07/15 01:35:15;;;;;;;62.72;20.23;;;18.00;99.90;;;;;;5055275;28;20185;-84
2021/07/15 01:37:48;;;;;;;62.78;20.48;;;18.00;99.90;;;;;;5084434;28;20227;-84
2021/07/15 01:40:18;;;;;;;68.95;21.00;;;18.00;99.90;;;;;;5073820;28;20170;-84
2021/07/15 01:42:47;;;;;;;64.50;19.70;;;18.00;99.90;;;;;;5075199;28;20242;-85
2021/07/15 01:45:13;;;;;;;64.30;21.23;;;18.00;99.90;;;;;;5093586;28;20173;-84
2021/07/15 01:47:38;;;;;;;56.95;20.30;;;18.00;99.90;;;;;;5075245;28;20166;-84
2021/07/15 01:50:05;;;;;;;74.35;22.05;;;18.10;99.90;;;;;;5058516;28;20182;-84
2021/07/15 01:52:31;;;;;;;73.80;22.40;;;18.00;99.90;;;;;;5093403;28;20175;-85
2021/07/15 01:54:57;;;;;;;60.55;22.25;;;18.10;99.90;;;;;;5070667;28;20178;-84
2021/07/15 01:57:26;;;;;;;73.15;22.45;;;18.10;99.90;;;;;;5058869;28;20187;-86
2021/07/15 01:59:53;;;;;;;60.05;20.20;;;18.00;99.90;;;;;;5059972;28;20175;-85
2021/07/15 02:02:21;;;;;;;70.32;21.02;;;18.00;99.90;;;;;;5058643;28;20182;-85
2021/07/15 02:04:48;;;;;;;61.72;20.10;;;18.00;99.90;;;;;;5058864;28;20556;-85
2021/07/15 02:07:15;;;;;;;60.58;19.73;;;18.00;99.90;;;;;;5051552;28;20526;-84
2021/07/15 02:09:42;;;;;;;59.05;19.25;;;17.90;99.90;;;;;;5082740;28;20171;-84
2021/07/15 02:12:07;;;;;;;67.75;19.83;;;18.00;99.90;;;;;;5040817;28;20189;-85
2021/07/15 02:14:34;;;;;;;59.33;19.50;;;18.00;99.90;;;;;;5062075;28;20170;-84
2021/07/15 02:17:02;;;;;;;64.50;20.38;;;18.00;99.90;;;;;;5078384;28;20654;-84
2021/07/15 02:19:29;;;;;;;49.83;18.48;;;18.10;99.90;;;;;;5057657;28;20178;-84
2021/07/15 02:21:55;;;;;;;72.40;20.35;;;18.10;99.90;;;;;;5077532;28;20179;-85
2021/07/15 02:24:24;;;;;;;54.70;18.92;;;18.10;99.90;;;;;;5058557;28;20202;-85
2021/07/15 02:26:54;;;;;;;53.25;17.77;;;18.10;99.90;;;;;;5076632;28;20650;-84
2021/07/15 02:29:20;;;;;;;70.45;19.42;;;18.00;99.90;;;;;;5076142;28;20166;-85
2021/07/15 02:31:52;;;;;;;52.35;17.85;;;18.00;99.90;;;;;;5042251;28;20175;-83
2021/07/15 02:34:33;;;;;;;56.67;18.05;;;17.90;99.90;;;;;;5076253;28;20178;-83
2021/07/15 02:37:03;;;;;;;50.97;18.95;;;17.90;99.90;;;;;;5062460;28;20177;-85
2021/07/15 02:39:28;;;;;;;58.05;19.80;;;17.90;99.90;;;;;;5075869;28;20188;-84
2021/07/15 02:41:54;;;;;;;53.10;19.00;;;17.80;99.90;;;;;;5076050;28;20262;-84
2021/07/15 02:44:20;;;;;;;49.13;20.83;;;17.70;99.90;;;;;;5076551;28;20207;-85
2021/07/15 02:46:46;;;;;;;59.20;20.52;;;17.70;99.90;;;;;;5057932;28;20170;-84
2021/07/15 02:49:12;;;;;;;62.72;19.88;;;17.70;99.90;;;;;;5046945;28;20178;-85
2021/07/15 02:51:38;;;;;;;67.88;21.13;;;17.80;99.90;;;;;;5096113;28;20632;-84
2021/07/15 02:54:04;;;;;;;63.13;21.35;;;17.80;99.90;;;;;;5060808;28;20178;-83
2021/07/15 02:56:51;;;;;;;54.25;20.13;;;17.80;99.90;;;;;;5078243;28;20226;-83
2021/07/15 02:59:23;;;;;;;54.35;20.73;;;17.70;99.90;;;;;;5078167;28;20577;-84
2021/07/15 03:01:51;;;;;;;68.53;21.52;;;17.70;99.90;;;;;;5077933;28;20174;-84
2021/07/15 03:04:35;;;;;;;59.33;20.40;;;17.60;99.90;;;;;;5091284;28;20197;-83
2021/07/15 03:07:03;;;;;;;57.38;20.63;;;17.60;99.90;;;;;;5057912;28;20241;-84
2021/07/15 03:09:30;;;;;;;69.13;20.65;;;17.60;99.90;;;;;;5057715;28;20171;-84
2021/07/15 03:12:14;;;;;;;52.00;19.58;;;17.60;99.90;;;;;;5041104;28;20620;-83
2021/07/15 03:14:44;;;;;;;74.05;22.75;;;17.60;99.90;;;;;;5077495;28;20628;-85
2021/07/15 03:17:13;;;;;;;62.00;21.27;;;17.70;99.90;;;;;;5098348;28;20548;-85
2021/07/15 03:19:43;;;;;;;73.60;21.63;;;17.70;99.90;;;;;;5108554;28;20188;-83
2021/07/15 03:22:10;;;;;;;62.08;22.00;;;17.70;99.90;;;;;;5093072;28;20177;-84
2021/07/15 03:24:43;;;;;;;51.65;20.38;;;17.80;99.90;;;;;;5097521;28;20198;-85
2021/07/15 03:27:09;;;;;;;59.83;21.67;;;17.80;99.90;;;;;;5105264;28;20185;-83
2021/07/15 03:29:36;;;;;;;72.07;21.67;;;17.80;99.90;;;;;;5060913;28;20262;-84
2021/07/15 03:32:05;;;;;;;64.60;22.45;;;17.80;99.90;;;;;;5077404;28;20227;-84
2021/07/15 03:34:35;;;;;;;72.95;22.45;;;17.80;99.90;;;;;;5070795;28;20533;-84
2021/07/15 03:37:02;;;;;;;59.03;21.45;;;17.80;99.90;;;;;;5051078;28;20272;-84
2021/07/15 03:39:28;;;;;;;70.55;21.10;;;17.80;99.90;;;;;;5095109;28;20162;-85
2021/07/15 03:41:54;;;;;;;66.07;21.67;;;17.80;99.90;;;;;;5077209;28;20174;-84
2021/07/15 03:44:21;;;;;;;53.50;22.30;;;17.80;99.90;;;;;;5077215;28;20229;-85
2021/07/15 03:46:50;;;;;;;60.65;21.10;;;17.80;99.90;;;;;;5057483;28;20180;-85
2021/07/15 03:49:19;;;;;;;54.35;22.40;;;17.80;99.90;;;;;;5076351;28;20176;-85
2021/07/15 03:51:48;;;;;;;56.13;20.08;;;17.90;99.90;;;;;;5094558;28;20169;-84
2021/07/15 03:54:14;;;;;;;81.75;22.33;;;17.90;99.90;;;;;;5076754;28;20181;-84
2021/07/15 03:56:43;;;;;;;58.00;20.67;;;17.90;99.90;;;;;;5076627;28;20628;-84
2021/07/15 03:59:09;;;;;;;61.33;20.77;;;17.90;99.90;;;;;;5093318;28;20166;-84
2021/07/15 04:01:36;;;;;;;58.17;20.73;;;17.90;99.90;;;;;;5076877;28;20575;-84
2021/07/15 04:04:06;;;;;;;65.90;21.50;;;17.90;99.90;;;;;;5076154;28;20194;-84
2021/07/15 04:06:33;;;;;;;68.70;21.50;;;17.80;99.90;;;;;;5076783;28;20193;-87
2021/07/15 04:09:00;;;;;;;75.28;20.75;;;17.80;99.90;;;;;;5085290;28;20182;-84
2021/07/15 04:11:29;;;;;;;65.68;22.17;;;17.80;99.90;;;;;;5074337;28;20224;-84
2021/07/15 04:13:55;;;;;;;67.50;20.23;;;17.70;99.90;;;;;;5073898;28;20163;-83
2021/07/15 04:16:48;;;;;;;63.40;22.88;;;17.70;99.90;;;;;;5022702;28;20207;-84
2021/07/15 04:19:15;;;;;;;63.88;21.67;;;17.70;99.90;;;;;;5057424;28;20524;-85
2021/07/15 04:21:42;;;;;;;52.80;21.08;;;17.70;99.90;;;;;;5055702;28;20178;-84
2021/07/15 04:24:09;;;;;;;54.88;20.98;;;17.80;99.90;;;;;;5056292;28;20205;-83
2021/07/15 04:26:36;;;;;;;52.90;21.88;;;17.70;99.90;;;;;;5056184;28;20198;-84
2021/07/15 04:29:03;;;;;;;62.85;20.88;;;17.70;99.90;;;;;;5056064;28;20171;-84
2021/07/15 04:32:01;;;;;;;53.03;20.45;;;17.70;99.90;;;;;;5058611;28;20178;-85
2021/07/15 04:34:27;;;;;;;53.33;21.08;;;17.80;99.90;;;;;;5016056;28;20183;-85
2021/07/15 04:36:55;;;;;;;53.92;20.77;;;17.80;99.90;;;;;;5074005;28;20202;-84
2021/07/15 04:39:23;;;;;;;64.88;22.08;;;17.80;99.90;;;;;;5075016;28;20183;-83
2021/07/15 04:41:49;;;;;;;49.40;22.50;;;17.70;99.90;;;;;;5056407;28;20169;-85
2021/07/15 04:44:15;;;;;;;71.55;21.95;;;17.70;99.90;;;;;;5039483;28;20195;-83
2021/07/15 04:46:42;;;;;;;56.55;20.90;;;17.70;99.90;;;;;;5055864;28;20198;-83
2021/07/15 04:49:08;;;;;;;58.50;21.48;;;17.70;99.90;;;;;;5064329;28;20220;-83
2021/07/15 04:51:39;;;;;;;56.20;22.00;;;17.80;99.90;;;;;;5022767;28;20174;-83
2021/07/15 04:54:05;;;;;;;56.58;21.77;;;17.80;99.90;;;;;;5055800;28;20224;-84
2021/07/15 04:56:32;;;;;;;52.20;21.73;;;17.80;99.90;;;;;;5055627;28;20680;-84
2021/07/15 04:58:59;;;;;;;47.97;21.55;;;17.80;99.90;;;;;;5056916;28;20162;-82
2021/07/15 05:01:25;;;;;;;54.42;21.33;;;17.80;99.90;;;;;;5039208;28;20171;-83
2021/07/15 05:03:51;;;;;;;45.00;20.92;;;17.70;99.90;;;;;;5055398;28;20343;-84
2021/07/15 05:06:19;;;;;;;56.42;20.52;;;17.80;99.90;;;;;;5093558;28;20181;-83
2021/07/15 05:08:44;;;;;;;49.17;21.73;;;17.80;99.90;;;;;;5058735;28;20170;-83
2021/07/15 05:11:12;;;;;;;60.10;20.60;;;17.80;99.90;;;;;;5091699;28;20673;-84
2021/07/15 05:13:38;;;;;;;64.50;22.80;;;17.90;99.90;;;;;;5059417;28;20178;-83
2021/07/15 05:16:05;;;;;;;53.80;20.42;;;17.80;99.90;;;;;;5075387;28;20173;-84
2021/07/15 05:18:30;;;;;;;55.28;21.70;;;17.90;99.90;;;;;;5057141;28;20257;-85
2021/07/15 05:20:56;;;;;;;56.45;21.40;;;17.90;99.90;;;;;;5056363;28;20716;-83
2021/07/15 05:23:22;;;;;;;50.20;20.45;;;17.90;99.90;;;;;;5038719;28;20203;-83
2021/07/15 05:25:50;;;;;;;53.13;21.40;;;17.90;99.90;;;;;;5038815;28;20175;-83
2021/07/15 05:28:15;;;;;;;49.10;20.02;;;17.90;99.90;;;;;;5040400;28;20262;-84
2021/07/15 05:30:41;;;;;;;59.08;21.08;;;17.90;99.90;;;;;;5060975;28;20194;-83
2021/07/15 05:33:07;;;;;;;52.83;19.83;;;17.90;99.90;;;;;;5042468;28;20287;-83
2021/07/15 05:35:33;;;;;;;55.78;22.40;;;18.00;99.90;;;;;;5073003;28;20174;-83
2021/07/15 05:37:59;;;;;;;58.85;20.67;;;18.00;99.90;;;;;;5079547;28;20211;-84
2021/07/15 05:40:25;;;;;;;57.92;19.80;;;18.00;99.90;;;;;;5097730;28;20177;-83
2021/07/15 05:42:51;;;;;;;57.75;21.13;;;17.90;99.90;;;;;;5077726;28;20261;-84
2021/07/15 05:45:16;;;;;;;59.30;20.67;;;17.90;99.90;;;;;;5062549;28;20249;-85
2021/07/15 05:47:43;;;;;;;43.45;20.67;;;17.90;99.90;;;;;;5096762;28;20551;-84
2021/07/15 05:50:09;;;;;;;51.08;20.13;;;17.80;99.90;;;;;;5082313;28;20231;-84
2021/07/15 05:52:35;;;;;;;44.85;20.27;;;17.90;99.90;;;;;;5071765;28;20240;-83
2021/07/15 05:55:01;;;;;;;51.97;20.13;;;17.90;99.90;;;;;;5042423;28;20610;-82
2021/07/15 05:57:27;;;;;;;48.97;18.75;;;17.90;99.90;;;;;;5059556;28;20186;-83
2021/07/15 05:59:53;;;;;;;57.28;20.48;;;17.90;99.90;;;;;;5042316;28;20185;-85
2021/07/15 06:02:18;;;;;;;60.58;19.92;;;17.90;99.90;;;;;;5058689;28;20632;-83
2021/07/15 06:04:44;;;;;;;45.38;18.05;;;18.00;99.90;;;;;;5058543;28;20191;-83
2021/07/15 06:07:10;;;;;;;49.58;19.88;;;18.00;99.90;;;;;;5025729;28;20641;-83
2021/07/15 06:09:36;;;;;;;51.72;18.02;;;18.10;99.90;;;;;;5058662;28;20181;-83
2021/07/15 06:12:01;;;;;;;44.33;17.35;;;18.10;99.90;;;;;;5058536;28;20194;-83
2021/07/15 06:14:27;;;;;;;41.70;16.88;;;18.10;99.90;;;;;;5069861;28;20192;-84
2021/07/15 06:16:53;;;;;;;41.58;17.02;;;18.10;99.90;;;;;;5058702;28;20174;-82
2021/07/15 06:19:18;;;;;;;34.85;15.63;;;18.10;99.90;;;;;;5058612;28;20189;-84
2021/07/15 06:21:44;;;;;;;33.60;14.32;;;18.20;99.90;;;;;;5058608;28;20178;-83
2021/07/15 06:24:10;;;;;;;42.83;14.77;;;18.00;99.90;;;;;;5043153;28;20191;-83
2021/07/15 06:26:36;;;;;;;40.17;14.95;;;18.10;99.90;;;;;;5058182;28;20197;-83
2021/07/15 06:29:03;;;;;;;32.47;13.90;;;18.10;99.90;;;;;;5058195;28;20179;-82
2021/07/15 06:31:28;;;;;;;34.45;14.85;;;18.20;99.90;;;;;;5058188;28;20177;-82
2021/07/15 06:33:54;;;;;;;32.47;15.27;;;18.20;99.90;;;;;;5089195;28;20277;-85
2021/07/15 06:36:20;;;;;;;29.90;14.20;;;18.20;99.90;;;;;;5094626;28;20209;-83
2021/07/15 06:38:46;;;;;;;31.42;15.02;;;18.20;99.90;;;;;;5096079;28;20672;-83
2021/07/15 06:41:11;;;;;;;49.97;17.10;;;18.30;99.90;;;;;;5060621;28;20166;-83
2021/07/15 06:43:39;;;;;;;32.67;15.23;;;18.30;99.90;;;;;;5078242;28;20225;-82
2021/07/15 06:46:05;;;;;;;40.10;15.98;;;18.40;99.90;;;;;;5069178;28;20174;-82
2021/07/15 06:48:31;;;;;;;43.00;16.15;;;18.30;99.90;;;;;;5073140;28;20639;-82
2021/07/15 06:50:57;;;;;;;35.42;15.27;;;18.30;99.90;;;;;;5061083;28;20186;-83
2021/07/15 06:53:23;;;;;;;41.53;15.65;;;18.20;99.90;;;;;;5077894;28;20645;-82
2021/07/15 06:55:49;;;;;;;43.05;15.98;;;18.20;99.90;;;;;;5094697;28;20180;-82
2021/07/15 06:58:14;;;;;;;33.28;15.25;;;18.20;99.90;;;;;;5057681;28;20183;-82
2021/07/15 07:00:40;;;;;;;29.77;15.18;;;18.20;99.90;;;;;;5057667;28;20253;-82
2021/07/15 07:03:06;;;;;;;41.55;14.95;;;18.20;99.90;;;;;;5063457;28;20181;-82
2021/07/15 07:05:32;;;;;;;37.22;16.83;;;18.20;99.90;;;;;;5077454;28;20166;-82
2021/07/15 07:07:58;;;;;;;35.05;15.90;;;18.30;99.90;;;;;;5077294;28;20198;-81
2021/07/15 07:10:24;;;;;;;40.30;16.73;;;18.30;99.90;;;;;;5044454;28;20612;-81
2021/07/15 07:12:50;;;;;;;39.35;18.58;;;18.40;99.90;;;;;;5076368;28;20220;-80
2021/07/15 07:15:17;;;;;;;38.05;18.33;;;18.30;99.90;;;;;;5060822;28;20640;-81
2021/07/15 07:17:44;;;;;;;48.83;18.35;;;18.20;99.90;;;;;;5076726;28;20669;-81
2021/07/15 07:20:12;;;;;;;48.72;20.45;;;18.10;99.90;;;;;;5094582;28;20200;-81
2021/07/15 07:22:38;;;;;;;53.85;20.15;;;18.10;99.90;;;;;;5062851;28;20254;-81
2021/07/15 07:25:06;;;;;;;46.03;19.40;;;18.10;99.90;;;;;;5075859;28;20228;-81
2021/07/15 07:27:32;;;;;;;50.00;19.65;;;18.10;99.90;;;;;;5074450;28;20183;-82
2021/07/15 07:29:59;;;;;;;42.70;18.30;;;18.20;99.90;;;;;;5074782;28;20224;-82
2021/07/15 07:32:25;;;;;;;46.45;17.83;;;18.20;99.90;;;;;;5079888;28;20270;-81
2021/07/15 07:34:51;;;;;;;39.45;18.23;;;18.10;99.90;;;;;;5056437;28;20178;-82
2021/07/15 07:37:17;;;;;;;41.10;17.73;;;18.20;99.90;;;;;;5056996;28;20177;-83
2021/07/15 07:39:42;;;;;;;49.15;17.98;;;18.20;99.90;;;;;;5058282;28;20170;-81
2021/07/15 07:42:08;;;;;;;54.38;18.17;;;18.20;99.90;;;;;;5058947;28;20227;-79
2021/07/15 07:44:34;;;;;;;42.30;16.15;;;18.20;99.90;;;;;;5072786;28;20652;-81
2021/07/15 07:47:00;;;;;;;39.08;18.25;;;18.20;99.90;;;;;;5075766;28;20647;-80
2021/07/15 07:49:26;;;;;;;38.42;16.42;;;18.10;99.90;;;;;;5059198;28;20180;-81
2021/07/15 07:51:51;;;;;;;42.63;16.83;;;18.20;99.90;;;;;;5075390;28;20178;-80
2021/07/15 07:54:17;;;;;;;36.50;15.35;;;18.30;99.90;;;;;;5075459;28;20178;-81
2021/07/15 07:56:43;;;;;;;43.78;16.33;;;18.40;99.90;;;;;;5073464;28;20166;-78
2021/07/15 07:59:08;;;;;;;37.75;14.70;;;18.50;99.90;;;;;;5074188;28;20178;-83
2021/07/15 08:01:35;;;;;;;39.78;15.23;;;18.60;99.90;;;;;;5057619;28;20170;-82
2021/07/15 08:04:02;;;;;;;40.03;15.15;;;18.70;99.90;;;;;;5074599;28;20675;-83
2021/07/15 08:06:33;;;;;;;51.58;15.15;;;18.60;99.90;;;;;;5071222;28;20212;-82
2021/07/15 08:09:05;;;;;;;51.63;15.30;;;18.50;99.90;;;;;;5075616;28;20187;-82
2021/07/15 08:11:31;;;;;;;35.65;14.52;;;18.40;99.90;;;;;;5075075;28;20190;-82
2021/07/15 08:13:56;;;;;;;38.58;13.52;;;18.50;99.90;;;;;;5080957;28;20184;-83
2021/07/15 08:16:22;;;;;;;42.20;14.93;;;18.60;99.90;;;;;;5072479;28;20185;-83
2021/07/15 08:18:48;;;;;;;39.00;14.65;;;18.60;99.90;;;;;;5081877;28;20567;-84
2021/07/15 08:21:21;;;;;;;46.25;14.43;;;18.60;99.90;;;;;;5075991;28;20174;-82
2021/07/15 08:23:48;;;;;;;48.35;14.30;;;18.60;99.90;;;;;;5075811;28;20243;-83
2021/07/15 08:26:14;;;;;;;41.65;14.27;;;18.60;99.90;;;;;;5055453;28;20186;-84
2021/07/15 08:28:40;;;;;;;34.25;13.73;;;18.60;99.90;;;;;;5053199;28;20585;-82
2021/07/15 08:31:05;;;;;;;33.25;12.80;;;18.60;99.90;;;;;;5039574;28;20175;-84
2021/07/15 08:33:31;;;;;;;46.15;13.38;;;18.60;99.90;;;;;;5039032;28;20185;-83
2021/07/15 08:35:57;;;;;;;36.17;13.18;;;18.60;99.90;;;;;;5055790;28;20648;-83
2021/07/15 08:38:23;;;;;;;36.28;12.73;;;18.70;99.90;;;;;;5063529;28;20193;-84
2021/07/15 08:40:50;;;;;;;37.78;12.85;;;18.70;99.90;;;;;;5059399;28;20629;-84
2021/07/15 08:43:17;;;;;;;39.10;12.95;;;18.70;99.90;;;;;;5059357;28;20166;-83
2021/07/15 08:45:44;;;;;;;49.90;13.68;;;18.70;99.90;;;;;;5038853;28;20179;-83
2021/07/15 08:48:11;;;;;;;38.65;12.85;;;18.70;99.90;;;;;;5078170;28;20260;-81
2021/07/15 08:50:38;;;;;;;41.20;13.18;;;18.60;99.90;;;;;;5062873;28;20270;-83
2021/07/15 08:53:04;;;;;;;45.95;14.13;;;18.60;99.90;;;;;;5064513;28;20206;-82
2021/07/15 08:58:19;;;;;;;38.78;13.60;;;18.50;99.90;;;;;;5087826;28;20245;-83
2021/07/15 09:00:47;;;;;;;36.00;13.70;;;18.30;99.90;;;;;;5055665;28;20173;-82
2021/07/15 09:03:13;;;;;;;36.30;14.10;;;18.20;99.90;;;;;;5048354;28;20237;-82
2021/07/15 09:05:41;;;;;;;43.40;14.43;;;18.20;99.90;;;;;;5073211;28;20633;-82
2021/07/15 09:08:07;;;;;;;32.30;13.98;;;18.30;99.90;;;;;;5055657;28;20202;-82
2021/07/15 09:10:33;;;;;;;35.83;14.95;;;18.20;99.90;;;;;;5059769;28;20212;-83
2021/07/15 09:13:03;;;;;;;40.97;15.20;;;18.20;99.90;;;;;;5074771;28;20624;-82
2021/07/15 09:15:28;;;;;;;39.38;13.93;;;18.20;99.90;;;;;;5092352;28;20269;-81
2021/07/15 09:17:54;;;;;;;31.17;13.52;;;18.10;99.90;;;;;;5057811;28;20585;-81
2021/07/15 09:20:26;;;;;;;34.28;15.07;;;18.10;99.90;;;;;;5058663;28;20712;-81
2021/07/15 09:22:57;;;;;;;33.28;14.98;;;18.00;99.90;;;;;;5055379;28;20580;-81
2021/07/15 09:25:23;;;;;;;40.05;13.57;;;18.10;99.90;;;;;;5073189;28;20202;-81
2021/07/15 09:27:49;;;;;;;40.50;14.63;;;18.10;99.90;;;;;;5039436;28;20535;-82
2021/07/15 09:30:17;;;;;;;34.17;14.38;;;18.20;99.90;;;;;;5057255;28;20205;-81
2021/07/15 09:33:10;;;;;;;45.45;16.80;;;18.30;99.90;;;;;;5092975;28;20159;-81
2021/07/15 09:35:36;;;;;;;37.28;15.30;;;18.40;99.90;;;;;;5069173;28;20640;-81
2021/07/15 09:38:12;;;;;;;38.03;15.00;;;18.50;99.90;;;;;;5075208;28;20504;-81
2021/07/15 09:40:43;;;;;;;41.50;16.00;;;18.60;99.90;;;;;;5074502;28;20672;-81
2021/07/15 09:43:14;;;;;;;55.08;16.35;;;18.80;99.90;;;;;;5055111;28;20170;-81
2021/07/15 09:45:40;;;;;;;37.67;15.80;;;18.80;99.90;;;;;;5072918;28;20198;-81
2021/07/15 09:48:14;;;;;;;39.17;14.63;;;18.70;99.90;;;;;;5073472;28;20205;-82
2021/07/15 09:50:40;;;;;;;38.50;15.13;;;18.70;99.90;;;;;;5075065;28;20177;-81
2021/07/15 09:53:23;;;;;;;40.97;15.43;;;18.70;99.90;;;;;;5078942;28;20171;-82
2021/07/15 09:56:11;;;;;;;34.10;16.10;;;18.70;99.90;;;;;;5055280;28;20589;-84
2021/07/15 09:58:38;;;;;;;35.30;15.40;;;18.70;99.90;;;;;;5058274;28;20256;-81
2021/07/15 10:01:12;;;;;;;35.33;15.50;;;18.60;99.90;;;;;;5063662;28;20237;-84
2021/07/15 10:03:46;;;;;;;26.75;15.02;;;18.50;99.90;;;;;;5092907;28;20273;-84
2021/07/15 10:06:13;;;;;;;39.13;16.15;;;18.40;99.90;;;;;;5093168;28;20182;-82
2021/07/15 10:08:41;;;;;;;51.08;17.85;;;18.40;99.90;;;;;;5093095;28;20530;-82
2021/07/15 10:11:13;;;;;;;41.03;15.48;;;18.50;99.90;;;;;;5093195;28;20220;-82
2021/07/15 10:13:40;;;;;;;41.15;16.90;;;18.50;99.90;;;;;;5073665;28;20206;-82
2021/07/15 10:16:07;;;;;;;36.47;17.35;;;18.50;99.90;;;;;;5096718;28;20174;-82
2021/07/15 10:18:38;;;;;;;47.40;17.42;;;18.40;99.90;;;;;;5069924;28;20205;-83
2021/07/15 10:21:06;;;;;;;36.80;18.23;;;18.30;99.90;;;;;;5076399;28;20167;-83
2021/07/15 10:23:37;;;;;;;45.10;18.70;;;18.30;99.90;;;;;;5083343;28;20201;-84
2021/07/15 10:26:04;;;;;;;47.00;19.13;;;18.30;99.90;;;;;;5078497;28;20544;-83
2021/07/15 10:28:30;;;;;;;40.63;17.98;;;18.20;99.90;;;;;;5069257;28;20650;-84
2021/07/15 10:31:01;;;;;;;53.47;19.98;;;18.20;99.90;;;;;;5058330;28;20207;-85
2021/07/15 10:33:29;;;;;;;34.00;17.60;;;18.20;99.90;;;;;;5090905;28;20171;-83
2021/07/15 10:35:57;;;;;;;40.47;18.52;;;18.20;99.90;;;;;;5075885;28;20564;-83
2021/07/15 10:38:25;;;;;;;36.58;18.17;;;18.10;99.90;;;;;;5076167;28;20167;-84
2021/07/15 10:40:52;;;;;;;44.25;18.88;;;18.10;99.90;;;;;;5058327;28;20633;-84
2021/07/15 10:43:17;;;;;;;38.40;18.83;;;18.10;99.90;;;;;;5075797;28;20163;-85
2021/07/15 10:45:45;;;;;;;36.70;19.30;;;18.10;99.90;;;;;;5058795;28;20525;-85
2021/07/15 10:48:13;;;;;;;37.33;17.85;;;18.10;99.90;;;;;;5058112;28;20171;-84
2021/07/15 10:50:39;;;;;;;39.53;19.00;;;18.00;99.90;;;;;;5042169;28;20171;-86
2021/07/15 10:53:05;;;;;;;43.22;18.65;;;17.90;99.90;;;;;;5075940;28;20624;-84
2021/07/15 10:55:31;;;;;;;33.58;18.20;;;17.90;99.90;;;;;;5065140;28;20170;-84
2021/07/15 10:57:57;;;;;;;47.17;19.48;;;17.90;99.90;;;;;;5074259;28;20664;-87
2021/07/15 11:00:27;;;;;;;38.88;18.92;;;18.00;99.90;;;;;;5064402;28;20171;-84
2021/07/15 11:03:14;;;;;;;43.25;19.88;;;18.10;99.90;;;;;;5066382;28;20528;-85
2021/07/15 11:06:06;;;;;;;34.75;17.92;;;18.10;99.90;;;;;;5077143;28;20252;-85
2021/07/15 11:08:55;;;;;;;42.97;18.85;;;18.10;99.90;;;;;;5036369;28;20198;-84
2021/07/15 11:11:42;;;;;;;40.92;19.33;;;18.10;99.90;;;;;;5040964;28;20225;-83
2021/07/15 11:14:37;;;;;;;41.17;19.75;;;18.10;99.90;;;;;;5057067;28;20185;-83
2021/07/15 11:17:22;;;;;;;43.63;19.90;;;18.20;99.90;;;;;;5065780;28;20170;-83
2021/07/15 11:19:53;;;;;;;37.50;19.05;;;18.20;99.90;;;;;;5089664;28;20265;-83
2021/07/15 11:22:50;;;;;;;42.38;19.95;;;18.20;99.90;;;;;;5093451;28;20166;-82
2021/07/15 11:25:28;;;;;;;36.72;18.52;;;18.20;99.90;;;;;;5092939;28;20243;-84
2021/07/15 11:27:56;;;;;;;39.95;18.02;;;18.10;99.90;;;;;;5092699;28;20596;-85
2021/07/15 11:30:39;;;;;;;36.33;19.10;;;17.90;99.90;;;;;;5089713;28;20170;-84
2021/07/15 11:33:22;;;;;;;42.40;19.17;;;17.90;99.90;;;;;;5074798;28;20184;-85
2021/07/15 11:36:06;;;;;;;36.38;18.33;;;18.00;99.90;;;;;;5057132;28;20253;-83
2021/07/15 11:38:52;;;;;;;35.17;18.92;;;18.00;99.90;;;;;;5058072;28;20159;-84
2021/07/15 11:41:17;;;;;;;44.25;20.27;;;18.10;99.90;;;;;;5074599;28;20197;-78
2021/07/15 11:43:52;;;;;;;37.55;18.98;;;18.10;99.90;;;;;;5056882;28;20198;-76
2021/07/15 11:46:37;;;;;;;44.13;19.90;;;18.00;99.90;;;;;;5056759;28;20214;-77
2021/07/15 11:49:26;;;;;;;44.83;19.98;;;18.00;99.90;;;;;;5075825;28;20197;-76
2021/07/15 11:51:52;;;;;;;36.75;19.48;;;18.10;99.90;;;;;;5056545;28;20179;-76
2021/07/15 11:54:17;;;;;;;46.20;20.38;;;18.30;99.90;;;;;;5056620;28;20324;-78
2021/07/15 11:56:46;;;;;;;41.83;20.30;;;18.40;99.90;;;;;;5056221;28;20183;-76
2021/07/15 11:59:30;;;;;;;37.28;19.92;;;18.50;99.90;;;;;;5058290;28;20167;-76
2021/07/15 12:02:19;;;;;;;44.20;19.85;;;18.50;99.90;;;;;;5090357;28;20171;-76
2021/07/15 12:05:10;;;;;;;56.33;19.83;;;18.60;99.90;;;;;;5094321;28;20526;-76
2021/07/15 12:08:01;;;;;;;39.38;18.75;;;18.60;99.90;;;;;;5094517;28;20166;-79
2021/07/15 12:10:29;;;;;;;44.63;21.33;;;18.60;99.90;;;;;;5074772;28;20186;-79
2021/07/15 12:12:59;;;;;;;39.85;19.80;;;18.70;99.90;;;;;;5076436;28;20535;-79
2021/07/15 12:15:27;;;;;;;43.65;19.08;;;18.70;99.90;;;;;;5076272;28;20192;-79
2021/07/15 12:18:00;;;;;;;37.65;18.42;;;18.70;99.90;;;;;;5094406;28;20162;-79
2021/07/15 12:20:44;;;;;;;35.15;18.23;;;18.60;99.90;;;;;;5090022;28;20155;-79
2021/07/15 12:23:15;;;;;;;37.45;18.58;;;18.60;99.90;;;;;;5074468;28;20219;-79
2021/07/15 12:25:43;;;;;;;45.50;18.42;;;18.60;99.90;;;;;;5076027;28;20315;-78
2021/07/15 12:28:14;;;;;;;35.55;17.73;;;18.50;99.90;;;;;;5094269;28;20158;-78
2021/07/15 12:30:49;;;;;;;38.22;17.25;;;18.40;99.90;;;;;;5091912;28;20185;-78
2021/07/15 12:33:15;;;;;;;34.35;18.17;;;18.40;99.90;;;;;;5084381;28;20644;-78
2021/07/15 12:35:42;;;;;;;38.13;19.23;;;18.40;99.90;;;;;;5093766;28;20538;-79
2021/07/15 12:38:35;;;;;;;43.42;19.42;;;18.50;99.90;;;;;;5075430;28;20619;-79
2021/07/15 12:41:17;;;;;;;40.05;19.27;;;18.50;99.90;;;;;;5089117;28;20220;-79
2021/07/15 12:43:47;;;;;;;33.95;18.80;;;18.60;99.90;;;;;;5092720;28;20338;-79